sensor_id;sensor_type;location;lat;lon;timestamp;pressure;altitude;pressure_sealevel;temperature;humidity
83140;BME280;73027;54.208;19.128;2023-09-30T00:02:21;101396.38;;;20.79;67.11
83140;BME280;73027;54.208;19.128;2023-09-30T00:04:47;101409.38;;;20.80;66.90
83140;BME280;73027;54.208;19.128;2023-09-30T00:07:12;101403.16;;;20.81;66.81
83140;BME280;73027;54.208;19.128;2023-09-30T00:09:37;101388.53;;;20.79;66.80
83140;BME280;73027;54.208;19.128;2023-09-30T00:12:03;101398.06;;;20.80;66.92
83140;BME280;73027;54.208;19.128;2023-09-30T00:14:29;101400.47;;;20.83;66.64
83140;BME280;73027;54.208;19.128;2023-09-30T00:16:54;101401.31;;;20.83;66.63
83140;BME280;73027;54.208;19.128;2023-09-30T00:19:20;101403.94;;;20.83;66.33
83140;BME280;73027;54.208;19.128;2023-09-30T00:21:48;101396.28;;;20.80;66.42
83140;BME280;73027;54.208;19.128;2023-09-30T00:24:13;101389.28;;;20.81;66.62
83140;BME280;73027;54.208;19.128;2023-09-30T00:26:39;101400.75;;;20.78;66.68
83140;BME280;73027;54.208;19.128;2023-09-30T00:29:04;101395.75;;;20.75;66.60
83140;BME280;73027;54.208;19.128;2023-09-30T00:31:30;101390.50;;;20.75;66.81
83140;BME280;73027;54.208;19.128;2023-09-30T00:33:56;101387.16;;;20.73;66.65
83140;BME280;73027;54.208;19.128;2023-09-30T00:36:21;101383.38;;;20.65;67.19
83140;BME280;73027;54.208;19.128;2023-09-30T00:38:47;101373.09;;;20.62;67.12
83140;BME280;73027;54.208;19.128;2023-09-30T00:41:12;101374.88;;;20.61;67.15
83140;BME280;73027;54.208;19.128;2023-09-30T00:43:37;101369.00;;;20.58;67.45
83140;BME280;73027;54.208;19.128;2023-09-30T00:48:50;101374.13;;;20.47;68.04
83140;BME280;73027;54.208;19.128;2023-09-30T00:51:15;101376.81;;;20.45;68.28
83140;BME280;73027;54.208;19.128;2023-09-30T00:53:41;101376.38;;;20.38;68.54
83140;BME280;73027;54.208;19.128;2023-09-30T00:56:07;101380.22;;;20.33;68.50
83140;BME280;73027;54.208;19.128;2023-09-30T00:58:34;101377.81;;;20.30;69.08
83140;BME280;73027;54.208;19.128;2023-09-30T01:01:01;101369.97;;;20.30;68.98
83140;BME280;73027;54.208;19.128;2023-09-30T01:03:26;101375.75;;;20.35;68.98
83140;BME280;73027;54.208;19.128;2023-09-30T01:05:52;101376.25;;;20.40;68.94
83140;BME280;73027;54.208;19.128;2023-09-30T01:08:18;101368.53;;;20.38;68.73
83140;BME280;73027;54.208;19.128;2023-09-30T01:10:45;101385.88;;;20.39;68.90
83140;BME280;73027;54.208;19.128;2023-09-30T01:13:10;101376.56;;;20.35;68.86
83140;BME280;73027;54.208;19.128;2023-09-30T01:15:36;101372.38;;;20.33;68.93
83140;BME280;73027;54.208;19.128;2023-09-30T01:18:03;101380.59;;;20.27;68.84
83140;BME280;73027;54.208;19.128;2023-09-30T01:20:28;101382.88;;;20.19;69.13
83140;BME280;73027;54.208;19.128;2023-09-30T01:22:54;101378.28;;;20.08;69.46
83140;BME280;73027;54.208;19.128;2023-09-30T01:25:21;101382.44;;;19.98;69.75
83140;BME280;73027;54.208;19.128;2023-09-30T01:27:46;101379.75;;;19.85;69.90
83140;BME280;73027;54.208;19.128;2023-09-30T01:30:13;101379.69;;;19.73;70.46
83140;BME280;73027;54.208;19.128;2023-09-30T01:32:39;101382.03;;;19.63;71.04
83140;BME280;73027;54.208;19.128;2023-09-30T01:35:05;101379.03;;;19.55;71.33
83140;BME280;73027;54.208;19.128;2023-09-30T01:37:30;101377.53;;;19.51;71.41
83140;BME280;73027;54.208;19.128;2023-09-30T01:39:56;101377.72;;;19.48;71.77
83140;BME280;73027;54.208;19.128;2023-09-30T01:42:21;101377.09;;;19.44;71.60
83140;BME280;73027;54.208;19.128;2023-09-30T01:44:46;101383.41;;;19.40;71.67
83140;BME280;73027;54.208;19.128;2023-09-30T01:47:13;101375.94;;;19.34;71.89
83140;BME280;73027;54.208;19.128;2023-09-30T01:49:38;101377.78;;;19.32;72.05
83140;BME280;73027;54.208;19.128;2023-09-30T01:52:04;101374.91;;;19.23;72.07
83140;BME280;73027;54.208;19.128;2023-09-30T01:54:29;101376.03;;;19.19;72.13
83140;BME280;73027;54.208;19.128;2023-09-30T01:56:55;101380.88;;;19.25;72.34
83140;BME280;73027;54.208;19.128;2023-09-30T01:59:21;101387.50;;;19.30;72.11
83140;BME280;73027;54.208;19.128;2023-09-30T02:01:47;101394.97;;;19.22;72.15
83140;BME280;73027;54.208;19.128;2023-09-30T02:04:13;101396.91;;;19.19;72.26
83140;BME280;73027;54.208;19.128;2023-09-30T02:06:41;101396.91;;;19.19;72.25
83140;BME280;73027;54.208;19.128;2023-09-30T02:09:06;101384.97;;;19.15;72.20
83140;BME280;73027;54.208;19.128;2023-09-30T02:11:34;101380.41;;;19.18;72.32
83140;BME280;73027;54.208;19.128;2023-09-30T02:13:59;101387.50;;;19.30;72.07
83140;BME280;73027;54.208;19.128;2023-09-30T02:16:25;101368.09;;;19.34;71.71
83140;BME280;73027;54.208;19.128;2023-09-30T02:18:52;101374.38;;;19.46;71.40
83140;BME280;73027;54.208;19.128;2023-09-30T02:21:17;101382.75;;;19.51;71.20
83140;BME280;73027;54.208;19.128;2023-09-30T02:23:42;101371.25;;;19.39;70.93
83140;BME280;73027;54.208;19.128;2023-09-30T02:26:13;101380.97;;;19.37;71.43
83140;BME280;73027;54.208;19.128;2023-09-30T02:28:39;101385.72;;;19.31;71.58
83140;BME280;73027;54.208;19.128;2023-09-30T02:31:05;101379.28;;;19.22;72.10
83140;BME280;73027;54.208;19.128;2023-09-30T02:33:32;101365.66;;;19.17;71.93
83140;BME280;73027;54.208;19.128;2023-09-30T02:35:58;101363.63;;;19.22;72.05
83140;BME280;73027;54.208;19.128;2023-09-30T02:38:24;101362.13;;;19.18;72.01
83140;BME280;73027;54.208;19.128;2023-09-30T02:40:50;101355.66;;;19.24;72.28
83140;BME280;73027;54.208;19.128;2023-09-30T02:43:16;101353.25;;;19.35;71.90
83140;BME280;73027;54.208;19.128;2023-09-30T02:45:42;101356.31;;;19.27;71.97
83140;BME280;73027;54.208;19.128;2023-09-30T02:48:07;101355.66;;;19.24;72.05
83140;BME280;73027;54.208;19.128;2023-09-30T02:50:33;101363.88;;;19.18;72.30
83140;BME280;73027;54.208;19.128;2023-09-30T02:52:59;101367.53;;;19.15;72.45
83140;BME280;73027;54.208;19.128;2023-09-30T02:55:24;101374.78;;;19.10;72.71
83140;BME280;73027;54.208;19.128;2023-09-30T02:57:49;101382.16;;;19.03;72.97
83140;BME280;73027;54.208;19.128;2023-09-30T03:00:15;101384.00;;;19.01;73.18
83140;BME280;73027;54.208;19.128;2023-09-30T03:02:54;101398.47;;;19.07;73.49
83140;BME280;73027;54.208;19.128;2023-09-30T03:05:20;101394.75;;;19.11;73.64
83140;BME280;73027;54.208;19.128;2023-09-30T03:07:46;101391.84;;;19.16;73.70
83140;BME280;73027;54.208;19.128;2023-09-30T03:10:11;101389.81;;;19.21;73.69
83140;BME280;73027;54.208;19.128;2023-09-30T03:12:39;101387.28;;;19.19;73.73
83140;BME280;73027;54.208;19.128;2023-09-30T03:15:04;101381.25;;;19.19;74.02
83140;BME280;73027;54.208;19.128;2023-09-30T03:17:31;101388.88;;;19.22;74.06
83140;BME280;73027;54.208;19.128;2023-09-30T03:19:58;101392.41;;;19.21;74.43
83140;BME280;73027;54.208;19.128;2023-09-30T03:22:24;101394.47;;;19.16;74.36
83140;BME280;73027;54.208;19.128;2023-09-30T03:24:50;101395.13;;;19.19;74.73
83140;BME280;73027;54.208;19.128;2023-09-30T03:27:16;101392.16;;;19.25;74.43
83140;BME280;73027;54.208;19.128;2023-09-30T03:29:41;101394.31;;;19.33;74.44
83140;BME280;73027;54.208;19.128;2023-09-30T03:32:07;101398.22;;;19.40;74.24
83140;BME280;73027;54.208;19.128;2023-09-30T03:34:35;101387.03;;;19.38;74.27
83140;BME280;73027;54.208;19.128;2023-09-30T03:37:05;101408.03;;;19.50;74.17
83140;BME280;73027;54.208;19.128;2023-09-30T03:39:35;101417.31;;;19.56;74.33
83140;BME280;73027;54.208;19.128;2023-09-30T03:42:00;101423.25;;;19.58;74.28
83140;BME280;73027;54.208;19.128;2023-09-30T03:44:26;101419.00;;;19.57;74.50
83140;BME280;73027;54.208;19.128;2023-09-30T03:46:52;101425.88;;;19.58;74.56
83140;BME280;73027;54.208;19.128;2023-09-30T03:49:18;101423.44;;;19.55;74.62
83140;BME280;73027;54.208;19.128;2023-09-30T03:51:45;101424.84;;;19.46;75.10
83140;BME280;73027;54.208;19.128;2023-09-30T03:54:10;101436.31;;;19.44;75.42
83140;BME280;73027;54.208;19.128;2023-09-30T03:56:36;101442.47;;;19.43;75.88
83140;BME280;73027;54.208;19.128;2023-09-30T03:59:04;101434.78;;;19.40;75.61
83140;BME280;73027;54.208;19.128;2023-09-30T04:01:29;101440.88;;;19.40;75.93
83140;BME280;73027;54.208;19.128;2023-09-30T04:03:56;101445.16;;;19.41;75.85
83140;BME280;73027;54.208;19.128;2023-09-30T04:06:21;101451.91;;;19.45;75.91
83140;BME280;73027;54.208;19.128;2023-09-30T04:08:47;101451.06;;;19.45;76.07
83140;BME280;73027;54.208;19.128;2023-09-30T04:11:12;101447.00;;;19.39;76.06
83140;BME280;73027;54.208;19.128;2023-09-30T04:13:43;101449.63;;;19.39;76.24
83140;BME280;73027;54.208;19.128;2023-09-30T04:16:09;101440.81;;;19.42;76.35
83140;BME280;73027;54.208;19.128;2023-09-30T04:18:34;101434.91;;;19.38;76.18
83140;BME280;73027;54.208;19.128;2023-09-30T04:21:00;101434.56;;;19.44;76.09
83140;BME280;73027;54.208;19.128;2023-09-30T04:23:25;101448.19;;;19.49;76.14
83140;BME280;73027;54.208;19.128;2023-09-30T04:25:50;101452.56;;;19.49;76.11
83140;BME280;73027;54.208;19.128;2023-09-30T04:28:16;101457.03;;;19.47;76.13
83140;BME280;73027;54.208;19.128;2023-09-30T04:30:47;101450.16;;;19.46;76.26
83140;BME280;73027;54.208;19.128;2023-09-30T04:33:13;101460.00;;;19.41;76.33
83140;BME280;73027;54.208;19.128;2023-09-30T04:35:39;101461.94;;;19.37;76.76
83140;BME280;73027;54.208;19.128;2023-09-30T04:38:04;101471.06;;;19.46;76.39
83140;BME280;73027;54.208;19.128;2023-09-30T04:40:30;101482.81;;;19.53;76.64
83140;BME280;73027;54.208;19.128;2023-09-30T04:42:55;101491.19;;;19.58;76.75
83140;BME280;73027;54.208;19.128;2023-09-30T04:45:24;101504.38;;;19.57;75.71
83140;BME280;73027;54.208;19.128;2023-09-30T04:47:51;101497.91;;;19.48;75.22
83140;BME280;73027;54.208;19.128;2023-09-30T04:50:17;101496.75;;;19.38;74.32
83140;BME280;73027;54.208;19.128;2023-09-30T04:52:42;101509.22;;;19.33;73.79
83140;BME280;73027;54.208;19.128;2023-09-30T04:55:09;101508.84;;;19.25;73.39
83140;BME280;73027;54.208;19.128;2023-09-30T04:57:37;101513.59;;;19.18;73.16
83140;BME280;73027;54.208;19.128;2023-09-30T05:00:02;101531.75;;;19.20;72.72
83140;BME280;73027;54.208;19.128;2023-09-30T05:02:37;101533.88;;;19.13;72.56
83140;BME280;73027;54.208;19.128;2023-09-30T05:05:02;101544.34;;;19.13;72.44
83140;BME280;73027;54.208;19.128;2023-09-30T05:07:31;101551.44;;;19.11;71.94
83140;BME280;73027;54.208;19.128;2023-09-30T05:09:56;101558.59;;;19.08;71.69
83140;BME280;73027;54.208;19.128;2023-09-30T05:12:22;101556.13;;;19.04;71.45
83140;BME280;73027;54.208;19.128;2023-09-30T05:14:48;101551.53;;;18.94;71.15
83140;BME280;73027;54.208;19.128;2023-09-30T05:17:13;101567.00;;;18.97;71.22
83140;BME280;73027;54.208;19.128;2023-09-30T05:19:39;101569.88;;;18.92;71.35
83140;BME280;73027;54.208;19.128;2023-09-30T05:22:04;101590.69;;;18.94;71.16
83140;BME280;73027;54.208;19.128;2023-09-30T05:24:30;101596.81;;;18.93;71.22
83140;BME280;73027;54.208;19.128;2023-09-30T05:26:56;101599.53;;;18.91;70.99
83140;BME280;73027;54.208;19.128;2023-09-30T05:29:22;101601.53;;;18.86;71.11
83140;BME280;73027;54.208;19.128;2023-09-30T05:31:48;101607.13;;;18.80;70.97
83140;BME280;73027;54.208;19.128;2023-09-30T05:34:13;101614.94;;;18.80;71.17
83140;BME280;73027;54.208;19.128;2023-09-30T05:36:38;101614.09;;;18.80;70.67
83140;BME280;73027;54.208;19.128;2023-09-30T05:39:04;101607.34;;;18.76;70.72
83140;BME280;73027;54.208;19.128;2023-09-30T05:41:31;101617.88;;;18.74;70.75
83140;BME280;73027;54.208;19.128;2023-09-30T05:43:56;101620.97;;;18.81;70.47
83140;BME280;73027;54.208;19.128;2023-09-30T05:46:23;101618.53;;;18.62;70.29
83140;BME280;73027;54.208;19.128;2023-09-30T05:48:49;101625.09;;;18.69;70.63
83140;BME280;73027;54.208;19.128;2023-09-30T05:51:15;101620.72;;;18.70;70.35
83140;BME280;73027;54.208;19.128;2023-09-30T05:53:41;101636.13;;;18.74;70.07
83140;BME280;73027;54.208;19.128;2023-09-30T05:56:07;101641.47;;;18.73;69.68
83140;BME280;73027;54.208;19.128;2023-09-30T05:58:32;101645.66;;;18.75;69.33
83140;BME280;73027;54.208;19.128;2023-09-30T06:00:58;101653.78;;;18.69;68.54
83140;BME280;73027;54.208;19.128;2023-09-30T06:03:25;101652.88;;;18.70;67.88
83140;BME280;73027;54.208;19.128;2023-09-30T06:05:51;101658.03;;;18.72;67.26
83140;BME280;73027;54.208;19.128;2023-09-30T06:08:16;101665.00;;;18.71;66.49
83140;BME280;73027;54.208;19.128;2023-09-30T06:10:42;101666.44;;;18.77;66.47
83140;BME280;73027;54.208;19.128;2023-09-30T06:13:09;101673.88;;;18.84;65.92
83140;BME280;73027;54.208;19.128;2023-09-30T06:15:37;101673.78;;;18.86;65.74
83140;BME280;73027;54.208;19.128;2023-09-30T06:18:07;101681.38;;;18.90;65.14
83140;BME280;73027;54.208;19.128;2023-09-30T06:20:33;101682.72;;;18.97;64.95
83140;BME280;73027;54.208;19.128;2023-09-30T06:22:59;101692.00;;;19.03;64.52
83140;BME280;73027;54.208;19.128;2023-09-30T06:25:25;101691.81;;;19.06;64.13
83140;BME280;73027;54.208;19.128;2023-09-30T06:27:53;101689.91;;;19.10;63.67
83140;BME280;73027;54.208;19.128;2023-09-30T06:30:20;101702.03;;;19.11;63.62
83140;BME280;73027;54.208;19.128;2023-09-30T06:32:46;101699.31;;;19.12;63.62
83140;BME280;73027;54.208;19.128;2023-09-30T06:35:12;101703.38;;;19.18;63.32
83140;BME280;73027;54.208;19.128;2023-09-30T06:37:40;101710.72;;;19.27;63.13
83140;BME280;73027;54.208;19.128;2023-09-30T06:40:06;101702.09;;;19.25;62.31
83140;BME280;73027;54.208;19.128;2023-09-30T06:42:34;101698.56;;;19.26;61.88
83140;BME280;73027;54.208;19.128;2023-09-30T06:45:00;101717.19;;;19.35;61.32
83140;BME280;73027;54.208;19.128;2023-09-30T06:47:26;101712.31;;;19.61;60.58
83140;BME280;73027;54.208;19.128;2023-09-30T06:49:51;101717.94;;;19.84;59.21
83140;BME280;73027;54.208;19.128;2023-09-30T06:52:17;101725.31;;;20.08;58.54
83140;BME280;73027;54.208;19.128;2023-09-30T06:54:42;101721.25;;;20.32;58.22
83140;BME280;73027;54.208;19.128;2023-09-30T06:57:07;101725.22;;;20.53;56.93
83140;BME280;73027;54.208;19.128;2023-09-30T06:59:35;101736.34;;;20.71;56.50
83140;BME280;73027;54.208;19.128;2023-09-30T07:02:00;101725.44;;;20.92;56.27
83140;BME280;73027;54.208;19.128;2023-09-30T07:04:25;101731.38;;;21.09;54.53
83140;BME280;73027;54.208;19.128;2023-09-30T07:06:52;101736.44;;;21.26;53.90
83140;BME280;73027;54.208;19.128;2023-09-30T07:09:18;101733.94;;;21.51;54.03
83140;BME280;73027;54.208;19.128;2023-09-30T07:11:45;101741.50;;;21.82;52.76
83140;BME280;73027;54.208;19.128;2023-09-30T07:14:10;101744.56;;;22.03;52.95
83140;BME280;73027;54.208;19.128;2023-09-30T07:16:36;101746.69;;;22.23;51.65
83140;BME280;73027;54.208;19.128;2023-09-30T07:19:01;101750.78;;;22.40;51.29
83140;BME280;73027;54.208;19.128;2023-09-30T07:21:28;101747.13;;;22.43;50.84
83140;BME280;73027;54.208;19.128;2023-09-30T07:23:53;101760.34;;;22.41;49.32
83140;BME280;73027;54.208;19.128;2023-09-30T07:26:26;101749.53;;;22.46;49.11
83140;BME280;73027;54.208;19.128;2023-09-30T07:28:53;101763.47;;;22.08;49.03
83140;BME280;73027;54.208;19.128;2023-09-30T07:31:19;101761.97;;;22.17;49.04
83140;BME280;73027;54.208;19.128;2023-09-30T07:33:45;101760.06;;;22.06;48.61
83140;BME280;73027;54.208;19.128;2023-09-30T07:36:10;101774.69;;;22.10;48.82
83140;BME280;73027;54.208;19.128;2023-09-30T07:38:37;101771.09;;;22.51;48.82
83140;BME280;73027;54.208;19.128;2023-09-30T07:41:02;101775.22;;;23.05;47.61
83140;BME280;73027;54.208;19.128;2023-09-30T07:43:29;101768.91;;;23.44;46.46
83140;BME280;73027;54.208;19.128;2023-09-30T07:45:55;101768.19;;;23.79;44.89
83140;BME280;73027;54.208;19.128;2023-09-30T07:48:21;101773.41;;;24.02;44.03
83140;BME280;73027;54.208;19.128;2023-09-30T07:50:46;101782.81;;;24.17;43.78
83140;BME280;73027;54.208;19.128;2023-09-30T07:53:12;101784.81;;;24.38;43.21
83140;BME280;73027;54.208;19.128;2023-09-30T07:55:38;101792.88;;;24.58;42.72
83140;BME280;73027;54.208;19.128;2023-09-30T07:58:04;101793.75;;;24.81;41.60
83140;BME280;73027;54.208;19.128;2023-09-30T08:00:29;101793.31;;;25.09;40.89
83140;BME280;73027;54.208;19.128;2023-09-30T08:02:55;101792.09;;;25.36;40.37
83140;BME280;73027;54.208;19.128;2023-09-30T08:05:20;101797.94;;;25.62;38.97
83140;BME280;73027;54.208;19.128;2023-09-30T08:07:46;101800.69;;;25.49;39.21
83140;BME280;73027;54.208;19.128;2023-09-30T08:10:12;101806.03;;;25.81;39.04
83140;BME280;73027;54.208;19.128;2023-09-30T08:12:39;101803.50;;;25.90;37.52
83140;BME280;73027;54.208;19.128;2023-09-30T08:15:05;101802.88;;;25.98;36.98
83140;BME280;73027;54.208;19.128;2023-09-30T08:17:31;101812.75;;;26.17;37.29
83140;BME280;73027;54.208;19.128;2023-09-30T08:19:59;101813.84;;;25.82;37.61
83140;BME280;73027;54.208;19.128;2023-09-30T08:22:24;101814.03;;;25.47;38.27
83140;BME280;73027;54.208;19.128;2023-09-30T08:24:53;101821.69;;;25.39;38.76
83140;BME280;73027;54.208;19.128;2023-09-30T08:27:18;101821.59;;;25.07;38.83
83140;BME280;73027;54.208;19.128;2023-09-30T08:29:45;101823.22;;;24.75;39.54
83140;BME280;73027;54.208;19.128;2023-09-30T08:32:11;101806.38;;;24.43;40.03
83140;BME280;73027;54.208;19.128;2023-09-30T08:34:36;101820.19;;;24.23;41.49
83140;BME280;73027;54.208;19.128;2023-09-30T08:37:01;101821.19;;;24.09;40.78
83140;BME280;73027;54.208;19.128;2023-09-30T08:39:27;101820.78;;;24.72;40.37
83140;BME280;73027;54.208;19.128;2023-09-30T08:41:55;101818.69;;;24.99;38.16
83140;BME280;73027;54.208;19.128;2023-09-30T08:44:20;101824.28;;;24.84;38.53
83140;BME280;73027;54.208;19.128;2023-09-30T08:46:46;101824.94;;;25.21;38.13
83140;BME280;73027;54.208;19.128;2023-09-30T08:49:13;101825.16;;;24.95;38.27
83140;BME280;73027;54.208;19.128;2023-09-30T08:51:39;101830.44;;;25.62;37.75
83140;BME280;73027;54.208;19.128;2023-09-30T08:54:05;101836.81;;;26.34;36.34
83140;BME280;73027;54.208;19.128;2023-09-30T08:56:31;101839.44;;;26.87;35.28
83140;BME280;73027;54.208;19.128;2023-09-30T08:58:59;101851.41;;;26.18;35.08
83140;BME280;73027;54.208;19.128;2023-09-30T09:01:28;101861.25;;;25.39;36.72
83140;BME280;73027;54.208;19.128;2023-09-30T09:03:55;101865.59;;;25.63;36.45
83140;BME280;73027;54.208;19.128;2023-09-30T09:06:25;101863.91;;;25.17;37.43
83140;BME280;73027;54.208;19.128;2023-09-30T09:08:51;101867.47;;;24.94;37.23
83140;BME280;73027;54.208;19.128;2023-09-30T09:11:17;101858.63;;;25.28;37.58
83140;BME280;73027;54.208;19.128;2023-09-30T09:13:51;101868.19;;;25.85;36.71
83140;BME280;73027;54.208;19.128;2023-09-30T09:16:21;101874.19;;;25.42;36.77
83140;BME280;73027;54.208;19.128;2023-09-30T09:18:47;101880.78;;;24.68;37.68
83140;BME280;73027;54.208;19.128;2023-09-30T09:21:16;101886.19;;;23.96;39.69
83140;BME280;73027;54.208;19.128;2023-09-30T09:23:47;101876.25;;;23.76;40.10
83140;BME280;73027;54.208;19.128;2023-09-30T09:26:26;101886.03;;;23.73;39.81
83140;BME280;73027;54.208;19.128;2023-09-30T09:28:58;101891.06;;;23.89;40.71
83140;BME280;73027;54.208;19.128;2023-09-30T09:31:33;101884.59;;;24.99;38.52
83140;BME280;73027;54.208;19.128;2023-09-30T09:34:13;101878.44;;;25.99;36.13
83140;BME280;73027;54.208;19.128;2023-09-30T09:36:45;101883.06;;;26.61;33.87
83140;BME280;73027;54.208;19.128;2023-09-30T09:39:11;101882.09;;;26.41;33.62
83140;BME280;73027;54.208;19.128;2023-09-30T09:41:51;101876.78;;;25.98;33.94
83140;BME280;73027;54.208;19.128;2023-09-30T09:44:19;101885.16;;;26.46;32.95
83140;BME280;73027;54.208;19.128;2023-09-30T09:46:45;101867.25;;;26.18;32.42
83140;BME280;73027;54.208;19.128;2023-09-30T09:49:12;101880.91;;;25.80;32.88
83140;BME280;73027;54.208;19.128;2023-09-30T09:51:38;101884.50;;;25.01;34.09
83140;BME280;73027;54.208;19.128;2023-09-30T09:54:06;101890.22;;;24.60;35.60
83140;BME280;73027;54.208;19.128;2023-09-30T09:56:34;101884.28;;;24.45;35.67
83140;BME280;73027;54.208;19.128;2023-09-30T09:59:01;101893.19;;;24.08;36.42
83140;BME280;73027;54.208;19.128;2023-09-30T10:01:33;101897.66;;;23.95;37.39
83140;BME280;73027;54.208;19.128;2023-09-30T10:04:00;101891.31;;;25.14;35.29
83140;BME280;73027;54.208;19.128;2023-09-30T10:06:26;101905.00;;;25.42;35.63
83140;BME280;73027;54.208;19.128;2023-09-30T10:08:52;101905.72;;;26.42;33.94
83140;BME280;73027;54.208;19.128;2023-09-30T10:11:18;101896.16;;;27.04;32.69
83140;BME280;73027;54.208;19.128;2023-09-30T10:13:53;101894.63;;;27.01;31.14
83140;BME280;73027;54.208;19.128;2023-09-30T10:19:25;101903.00;;;25.56;33.98
83140;BME280;73027;54.208;19.128;2023-09-30T10:24:48;101910.69;;;25.59;34.19
83140;BME280;73027;54.208;19.128;2023-09-30T10:37:44;101901.31;;;28.15;29.16
83140;BME280;73027;54.208;19.128;2023-09-30T10:40:21;101903.22;;;28.04;29.15
83140;BME280;73027;54.208;19.128;2023-09-30T10:42:50;101910.28;;;27.44;30.01
83140;BME280;73027;54.208;19.128;2023-09-30T10:50:53;101910.63;;;29.15;27.31
83140;BME280;73027;54.208;19.128;2023-09-30T10:53:22;101904.81;;;28.73;27.06
83140;BME280;73027;54.208;19.128;2023-09-30T10:55:54;101898.97;;;28.51;27.30
83140;BME280;73027;54.208;19.128;2023-09-30T10:58:20;101913.06;;;28.51;27.70
83140;BME280;73027;54.208;19.128;2023-09-30T11:00:54;101908.56;;;29.00;27.28
83140;BME280;73027;54.208;19.128;2023-09-30T11:03:22;101906.50;;;28.84;26.97
83140;BME280;73027;54.208;19.128;2023-09-30T11:05:48;101918.94;;;27.86;28.68
83140;BME280;73027;54.208;19.128;2023-09-30T11:08:15;101917.03;;;27.98;28.94
83140;BME280;73027;54.208;19.128;2023-09-30T11:10:51;101922.41;;;28.46;26.82
83140;BME280;73027;54.208;19.128;2023-09-30T11:13:18;101923.63;;;28.13;27.43
83140;BME280;73027;54.208;19.128;2023-09-30T11:15:44;101933.19;;;28.04;27.81
83140;BME280;73027;54.208;19.128;2023-09-30T11:18:17;101919.72;;;28.07;27.80
83140;BME280;73027;54.208;19.128;2023-09-30T11:20:43;101920.41;;;27.69;28.31
83140;BME280;73027;54.208;19.128;2023-09-30T11:23:13;101925.03;;;27.16;28.47
83140;BME280;73027;54.208;19.128;2023-09-30T11:25:39;101927.50;;;26.13;30.09
83140;BME280;73027;54.208;19.128;2023-09-30T11:28:16;101927.81;;;25.54;31.69
83140;BME280;73027;54.208;19.128;2023-09-30T11:31:00;101919.72;;;25.22;32.75
83140;BME280;73027;54.208;19.128;2023-09-30T11:33:31;101926.00;;;25.21;32.79
83140;BME280;73027;54.208;19.128;2023-09-30T11:36:05;101929.56;;;25.09;33.19
83140;BME280;73027;54.208;19.128;2023-09-30T11:38:35;101917.31;;;25.08;33.56
83140;BME280;73027;54.208;19.128;2023-09-30T11:41:05;101927.69;;;24.87;33.94
83140;BME280;73027;54.208;19.128;2023-09-30T11:43:35;101920.31;;;24.45;34.53
83140;BME280;73027;54.208;19.128;2023-09-30T11:46:11;101923.69;;;24.10;35.44
83140;BME280;73027;54.208;19.128;2023-09-30T11:49:04;101928.13;;;24.10;35.87
83140;BME280;73027;54.208;19.128;2023-09-30T11:51:42;101918.03;;;24.04;36.40
83140;BME280;73027;54.208;19.128;2023-09-30T11:54:11;101921.19;;;24.09;36.99
83140;BME280;73027;54.208;19.128;2023-09-30T11:56:36;101921.97;;;24.35;36.72
83140;BME280;73027;54.208;19.128;2023-09-30T11:59:03;101927.00;;;24.61;36.68
83140;BME280;73027;54.208;19.128;2023-09-30T12:01:29;101932.97;;;25.33;36.00
83140;BME280;73027;54.208;19.128;2023-09-30T12:03:57;101919.22;;;24.95;36.21
83140;BME280;73027;54.208;19.128;2023-09-30T12:06:23;101922.53;;;24.51;37.11
83140;BME280;73027;54.208;19.128;2023-09-30T12:08:49;101928.63;;;24.28;37.58
83140;BME280;73027;54.208;19.128;2023-09-30T12:11:18;101923.19;;;24.77;37.31
83140;BME280;73027;54.208;19.128;2023-09-30T12:13:43;101931.53;;;25.63;35.77
83140;BME280;73027;54.208;19.128;2023-09-30T12:16:10;101938.44;;;26.19;34.03
83140;BME280;73027;54.208;19.128;2023-09-30T12:18:38;101943.28;;;26.78;33.39
83140;BME280;73027;54.208;19.128;2023-09-30T12:21:03;101937.91;;;27.51;31.93
83140;BME280;73027;54.208;19.128;2023-09-30T12:23:31;101938.94;;;28.00;30.20
83140;BME280;73027;54.208;19.128;2023-09-30T12:25:57;101929.66;;;27.75;30.31
83140;BME280;73027;54.208;19.128;2023-09-30T12:28:22;101929.03;;;28.02;29.06
83140;BME280;73027;54.208;19.128;2023-09-30T12:30:47;101932.91;;;27.88;28.53
83140;BME280;73027;54.208;19.128;2023-09-30T12:33:13;101932.53;;;27.62;28.58
83140;BME280;73027;54.208;19.128;2023-09-30T12:35:38;101933.47;;;27.31;28.70
83140;BME280;73027;54.208;19.128;2023-09-30T12:38:03;101937.53;;;26.84;30.04
83140;BME280;73027;54.208;19.128;2023-09-30T12:40:28;101941.00;;;26.52;30.43
83140;BME280;73027;54.208;19.128;2023-09-30T12:42:54;101937.66;;;27.03;29.63
83140;BME280;73027;54.208;19.128;2023-09-30T12:45:20;101935.66;;;27.46;29.08
83140;BME280;73027;54.208;19.128;2023-09-30T12:47:45;101938.63;;;27.53;29.25
83140;BME280;73027;54.208;19.128;2023-09-30T12:50:12;101924.81;;;27.89;28.60
83140;BME280;73027;54.208;19.128;2023-09-30T12:52:38;101930.94;;;27.80;27.55
83140;BME280;73027;54.208;19.128;2023-09-30T12:55:04;101928.63;;;28.06;27.85
83140;BME280;73027;54.208;19.128;2023-09-30T12:57:30;101931.19;;;28.56;26.83
83140;BME280;73027;54.208;19.128;2023-09-30T12:59:55;101931.25;;;29.21;26.65
83140;BME280;73027;54.208;19.128;2023-09-30T13:02:21;101940.56;;;29.45;26.10
83140;BME280;73027;54.208;19.128;2023-09-30T13:04:46;101937.28;;;29.04;25.96